Maple Falls, WA

12:30 PM PDT on August 21, 2014 (GMT -0700)
Peaceful Valley | Change Station
CLOSE
Current Station
Personal Weather Station
Location: Maple Falls, WA
Elevation: 470 ft
Nearby Weather Stations

Elev 470 ft 48.94 °N, 122.14 °W | Updated 3 seconds ago

Clear
Clear
69.4 °F
Feels Like 69.4 °F
N
0.0
Wind Variable Wind from ESE
Gusts 1.7 mph

Today
High -- | Low -- °F
--% Chance of Precip.
Yesterday
High -- | Low -- °F
Precip. -- in
6:09 AM 8:12 PM
Waning Crescent, 12% visible
Pressure 30.03 in
Visibility 10.0 miles
Clouds Clear
Dew Point 59 °F
Humidity 70%
Rainfall 0.00 in
Snow Depth Not available.
UV 7 out of 12
Pollen 2.60 out of 12
PM2.5 Moderate
Flu Activity Not available.
METAR KBLI 211853Z 19009G14KT 10SM CLR 17/12 A3001 RMK AO2 SLP169 T01670117

More Conditions Fewer Conditions

Pressure 30.03 in
Visibility 10.0 miles
Clouds Clear
Dew Point 59 °F
Humidity 70%
Rainfall 0.00 in
Snow Depth Not available.
UV 7 out of 12
Pollen 2.60 out of 12
PM2.5 Moderate
Flu Activity Not available.
METAR KBLI 211853Z 19009G14KT 10SM CLR 17/12 A3001 RMK AO2 SLP169 T01670117

More Conditions Fewer Conditions

10-Day Weather Forecast

Almanac

Astronomy

Aug. 21, 2014 Rise Set
Actual Time 6:09 AM PDT 8:12 PM PDT
Civil Twilight 5:35 AM PDT 8:46 PM PDT
Nautical Twilight 4:53 AM PDT 9:28 PM PDT
Astronomical Twilight 4:05 AM PDT 10:15 PM PDT
Moon 2:36 AM PDT 5:52 PM PDT
Length of Visible Light 15h 10m
Length of Day
14h 02m
Tomorrow will be 3m 21s shorter.
Waning Crescent, 12% of the Moon is Illuminated
Today
Waning Crescent
Aug 25
New
Sep 2
First Quarter
Sep 8
Full
Sep 15
Last Quarter

Today's Extremes

State Highs State Lows

Community

WunderPhotos

Upload Photos

1,746,010 photos uploaded!

WunderBlogs® & News

Nearby

Air Quality

  Air Quality AQ Index Pollutant
Yesterday Good
PM2.5
Current Moderate
PM2.5
Thursday Good
OZONE
Thursday Good
PM2.5
Friday Good
OZONE
Friday Good
PM2.5
Saturday Good
OZONE
Saturday Good
PM2.5

Snow Depth

Station Depth Elevation
Beaver Pass 0 in 3620 ft
Rainy Pass 0 in 4780 ft
Lyman Lake 0 in 5900 ft
Alpine Meadows 0 in 3500 ft
Dungeness 1 in 4100 ft

Earthquake Activity

City Distance Mag. Time & Date
No recent earthquake activity has been reported nearby.
Minimum magnitude displayed is 2.5.

Coastal Water Temperatures

Place Temperature
Port Townsend, WA 55.0 °F
Friday Harbor, WA 54.0 °F
Port Angeles, WA 53.1 °F

Nearby Weather Stations